TNCBTIST

Guest
Details From TNCB - Bonaire Flamingo
To TIST - St Thomas - Cyril E King
Flight Number -
Tags Generated
Created
Modified
Stats Distance 419 nm / 776 km
Max Altitude 0 ft / 0 m
Waypoints 3
Social Downloads 1
Likes 0
Share VATSIM

Download

Looking for another format? Having issues loading an existing format? Contact us
Advertisement - Login to hide

Notes

Generated

Route

TNCB R1307 TIST

ID Type Via Altitude Latitude Longitude Leg Dist Tot Dist Heading (true) Name
O TNCB APT - 0 ft / 0 m 12.13144˚ -68.28175˚ - 0 nm - -
R1307 FIX - 0 ft / 0 m 18.33687˚ -64.98343˚ 418 nm 418 nm 27° / 28° -
O TIST APT - 0 ft / 0 m 18.33687˚ -64.98343˚ 0 nm 418 nm 0° / 180° -

Altitude Profile

Advertisement - Login to hide

Weather


0- 5 10 15 20 25 30 35+ Temperature / ° C

Clouds and Precipitation
Forecast for 2017-12-18 06:00 UTC. Updated 2 hours ago

Ground ~20,000 ft ~40,000 ft Winds

TNCB

Details ICAO TNCB (BON)
Name Bonaire Flamingo
Region Caribbean Netherlands, Aruba, Curaçao, Sint Maarten
Timezone America/Curacao (UTC-4.0)
Stats Elevation 20 ft / 6 m (AMSL)
Location 12.131046° -68.268511°
Runways 1
Magnetic Variation 11.705° W

METAR

TNCB 180455Z AUTO 10010KT 070V130 9999 NSC 26/23 Q1014

Decode

TAF

TAF TNCB 172305Z 1800/1906 08015KT 9999 SCT022 PROB30 TEMPO 1800/1906 05018G28KT 4000 SHRA SCT015CB BKN022

Decode

Departure Runways

ID Width Length Bearing (true) Bearing (mag) Surface Threshold Offset Overrun Length
10 148 ft / 45 m 9,451 ft / 2,881 m 91.75° 103.46° Asphalt 0 ft / 0 m 0 ft / 0 m
28 148 ft / 45 m 9,451 ft / 2,881 m 271.76° 283.47° Asphalt 0 ft / 0 m 200 ft / 61 m

TIST

Details ICAO TIST (STT)
Name St Thomas - Cyril E King
Region USA (U.S. Virgin Islands)
Timezone Unknown (UTC+0.0)
Stats Elevation 23 ft / 7 m (AMSL)
Location 18.337300° -64.973344°
Runways 1
Magnetic Variation 13.636° W

METAR

TIST 180453Z AUTO 04015KT 10SM FEW021 SCT026 BKN042 26/23 A3005

Decode

TAF

TAF TIST 172323Z 1800/1824 06012G20KT P6SM -RA SCT025 SCT040 BKN070 TEMPO 1800/1804 VRB14G24KT 5SM SHRA BKN025 BKN040 FM180400 05012KT P6SM VCSH SCT025 BKN050 FM181450 07014G22KT P6SM SCT028 SCT050 SCT080

Decode

Destination Runways

ID Width Length Bearing (true) Bearing (mag) Surface Threshold Offset Overrun Length
10 151 ft / 46 m 6,992 ft / 2,131 m 87.44° 101.08° Asphalt 0 ft / 0 m 200 ft / 61 m
28 151 ft / 46 m 6,992 ft / 2,131 m 267.44° 281.08° Asphalt 2,300 ft / 701 m 200 ft / 61 m

Approach Navaids

Runway Type Ident Frequency Range Bearing (true) Bearing (mag) Slope Elevation
10 Localiser ITMN 110.10 MHz 18 nm / 33 km 87.45° 101.09° - 15 ft / 5 m (AMSL)
10 Glidescope ITMN 110.10 MHz 10 nm / 19 km 87.44° 101.08° 3.00° 18 ft / 5 m (AMSL)
10 DME ITMN 110.10 MHz 18 nm / 33 km - - - 22 ft / 7 m (AMSL)